createdAt,value
2018-12-17T00:02:33.207Z,46.33
2018-12-17T00:05:08.867Z,45.40
2018-12-17T00:07:44.776Z,48.00
2018-12-17T00:10:18.901Z,47.20
2018-12-17T00:12:55.297Z,44.77
2018-12-17T00:15:36.506Z,46.80
2018-12-17T00:18:10.367Z,46.10
2018-12-17T00:20:44.551Z,49.30
2018-12-17T00:23:18.101Z,43.90
2018-12-17T00:25:53.450Z,48.77
2018-12-17T00:28:33.859Z,43.60
2018-12-17T00:31:07.618Z,48.37
2018-12-17T00:33:40.887Z,46.63
2018-12-17T00:36:15.239Z,38.07
2018-12-17T00:38:47.227Z,42.90
2018-12-17T00:41:22.616Z,41.77
2018-12-17T00:43:56.527Z,42.83
2018-12-17T00:46:30.365Z,50.27
2018-12-17T00:49:01.800Z,49.07
2018-12-17T00:51:37.754Z,45.80
2018-12-17T00:54:13.351Z,48.87
2018-12-17T00:56:51.758Z,48.97
2018-12-17T00:59:25.792Z,46.10
2018-12-17T01:01:59.657Z,48.47
2018-12-17T01:04:32.866Z,46.17
2018-12-17T01:07:08.194Z,44.63
2018-12-17T01:09:42.134Z,49.87
2018-12-17T01:12:21.556Z,45.47
2018-12-17T01:14:59.400Z,45.80
2018-12-17T01:17:33.124Z,50.83
2018-12-17T01:20:07.904Z,48.67
2018-12-17T01:22:41.203Z,48.23
2018-12-17T01:25:14.350Z,43.90
2018-12-17T01:27:45.885Z,48.60
2018-12-17T01:30:21.232Z,43.67
2018-12-17T01:32:55.042Z,44.90
2018-12-17T01:35:32.528Z,43.57
2018-12-17T01:38:06.606Z,46.77
2018-12-17T01:40:42.766Z,43.83
2018-12-17T01:43:24.890Z,43.70
2018-12-17T01:46:01.551Z,44.03
2018-12-17T01:48:35.371Z,38.77
2018-12-17T01:51:09.110Z,43.00
2018-12-17T01:53:42.268Z,42.73
2018-12-17T02:03:52.385Z,48.17
2018-12-17T02:06:26.123Z,45.80
2018-12-17T02:09:06.224Z,48.27
2018-12-17T02:11:43.757Z,46.00
2018-12-17T02:14:21.871Z,42.60
2018-12-17T02:16:53.216Z,47.70
2018-12-17T02:19:28.948Z,45.57
2018-12-17T02:22:02.637Z,52.17
2018-12-17T02:24:36.482Z,46.10
2018-12-17T02:27:16.848Z,47.13
2018-12-17T02:29:50.345Z,51.27
2018-12-17T02:32:23.668Z,56.30
2018-12-17T02:35:03.255Z,51.70
2018-12-17T02:37:43.215Z,52.43
2018-12-17T02:40:17.080Z,53.10
2018-12-17T02:42:56.615Z,52.47
2018-12-17T02:45:38.701Z,51.20
2018-12-17T02:48:16.432Z,53.47
2018-12-17T02:50:50.453Z,51.43
2018-12-17T02:53:23.549Z,51.87
2018-12-17T02:56:05.218Z,53.57
2018-12-17T02:58:43.974Z,54.73
2018-12-17T03:01:14.227Z,48.03
2018-12-17T03:03:49.551Z,50.70
2018-12-17T03:19:02.890Z,53.17
2018-12-17T03:21:36.075Z,48.53
2018-12-17T03:24:09.386Z,51.97
2018-12-17T03:26:42.329Z,50.30
2018-12-17T03:29:15.632Z,48.00
2018-12-17T03:31:48.974Z,44.43
2018-12-17T03:34:22.905Z,50.83
2018-12-17T03:36:55.953Z,45.03
2018-12-17T03:39:30.105Z,54.67
2018-12-17T03:42:03.429Z,51.80
2018-12-17T03:44:38.788Z,51.10
2018-12-17T03:47:18.687Z,52.83
2018-12-17T03:49:53.510Z,45.73
2018-12-17T03:52:30.986Z,47.73
2018-12-17T03:55:07.243Z,48.63
2018-12-17T03:57:40.678Z,53.13
2018-12-17T04:00:18.068Z,49.03
2018-12-17T04:02:51.939Z,51.10
2018-12-17T04:05:25.066Z,46.27
2018-12-17T04:08:00.443Z,48.60
2018-12-17T04:10:33.513Z,44.77
2018-12-17T04:13:06.935Z,50.87
2018-12-17T04:15:40.401Z,50.37
2018-12-17T04:18:23.310Z,48.37
2018-12-17T04:20:54.396Z,48.60
2018-12-17T04:23:27.660Z,51.60
2018-12-17T04:26:01.165Z,42.90
2018-12-17T04:28:34.431Z,47.17
2018-12-17T04:31:08.285Z,46.00
2018-12-17T04:33:42.503Z,51.00
2018-12-17T04:36:18.319Z,50.40
2018-12-17T04:38:52.120Z,47.00
2018-12-17T04:41:27.516Z,50.30
2018-12-17T04:44:07.693Z,50.77
2018-12-17T04:46:45.626Z,47.37
2018-12-17T04:49:19.371Z,48.10
2018-12-17T04:51:52.544Z,47.07
2018-12-17T04:54:32.138Z,52.87
2018-12-17T04:57:05.384Z,50.00
2018-12-17T04:59:38.500Z,55.97
2018-12-17T05:02:14.152Z,51.27
2018-12-17T05:04:50.241Z,45.10
2018-12-17T05:07:23.964Z,51.83
2018-12-17T05:09:57.792Z,47.27
2018-12-17T05:12:36.118Z,53.97
2018-12-17T05:15:10.071Z,47.77
2018-12-17T05:17:44.003Z,46.37
2018-12-17T05:20:17.334Z,47.63
2018-12-17T05:28:05.933Z,41.33
2018-12-17T05:33:20.330Z,44.70
2018-12-17T05:38:33.034Z,49.13
2018-12-17T05:41:06.410Z,49.90
2018-12-17T05:43:48.505Z,49.27
2018-12-17T05:46:19.649Z,44.80
2018-12-17T05:48:55.964Z,47.00
2018-12-17T05:51:32.536Z,45.23
2018-12-17T05:54:06.613Z,46.83
2018-12-17T05:56:38.754Z,46.00
2018-12-17T05:59:12.711Z,44.37
2018-12-17T06:01:52.343Z,46.07
2018-12-17T06:04:26.326Z,46.77
2018-12-17T06:06:59.562Z,46.83
2018-12-17T06:09:33.032Z,42.50
2018-12-17T06:12:12.429Z,42.63
2018-12-17T06:14:46.192Z,46.27
2018-12-17T06:17:19.334Z,42.97
2018-12-17T06:19:52.500Z,51.50
2018-12-17T06:22:32.019Z,46.80
2018-12-17T06:25:06.401Z,49.80
2018-12-17T06:27:40.060Z,45.17
2018-12-17T06:30:14.126Z,41.30
2018-12-17T06:32:48.157Z,43.87
2018-12-17T06:35:25.660Z,42.70
2018-12-17T06:38:03.976Z,40.10
2018-12-17T06:40:37.644Z,44.60
2018-12-17T06:43:10.956Z,46.17
2018-12-17T06:45:51.340Z,47.27
2018-12-17T06:48:29.373Z,47.30
2018-12-17T06:51:03.413Z,46.77
2018-12-17T06:53:40.438Z,47.47
2018-12-17T06:56:18.518Z,50.00
2018-12-17T06:58:52.983Z,47.77
2018-12-17T07:01:34.760Z,51.33
2018-12-17T07:04:13.888Z,46.23
2018-12-17T07:06:47.117Z,50.07
2018-12-17T07:09:23.425Z,43.10
2018-12-17T07:11:57.218Z,46.97
2018-12-17T07:14:36.277Z,47.33
2018-12-17T07:17:05.512Z,55.53
2018-12-17T07:19:39.471Z,60.57
2018-12-17T07:22:13.036Z,50.43
2018-12-17T07:24:47.056Z,59.03
2018-12-17T07:27:20.291Z,52.47
2018-12-17T07:29:53.394Z,65.53
2018-12-17T07:32:28.736Z,61.97
2018-12-17T07:35:02.362Z,67.10
2018-12-17T07:37:35.653Z,60.30
2018-12-17T07:40:09.142Z,56.93
2018-12-17T07:42:40.920Z,58.13
2018-12-17T07:45:14.097Z,59.10
2018-12-17T07:47:47.309Z,55.27
2018-12-17T07:50:21.682Z,54.63
2018-12-17T07:52:55.474Z,61.50
2018-12-17T07:55:28.921Z,53.67
2018-12-17T07:58:02.206Z,63.17
2018-12-17T08:00:35.589Z,61.03
2018-12-17T08:03:13.090Z,63.00
2018-12-17T08:05:46.953Z,58.13
2018-12-17T08:08:20.089Z,64.40
2018-12-17T08:10:53.482Z,61.23
2018-12-17T08:13:27.662Z,66.50
2018-12-17T08:16:03.778Z,66.67
2018-12-17T08:18:37.532Z,61.73
2018-12-17T08:21:11.571Z,64.73
2018-12-17T08:23:50.920Z,63.43
2018-12-17T08:26:27.186Z,61.90
2018-12-17T08:29:05.273Z,57.10
2018-12-17T08:31:43.253Z,81.60
2018-12-17T08:34:17.120Z,68.50
2018-12-17T08:36:55.304Z,64.70
2018-12-17T08:39:28.944Z,64.40
2018-12-17T08:42:02.008Z,59.70
2018-12-17T08:44:37.485Z,62.43
2018-12-17T08:47:15.621Z,52.57
2018-12-17T08:49:49.169Z,52.50
2018-12-17T08:52:23.362Z,53.03
2018-12-17T09:02:42.451Z,56.93
2018-12-17T09:05:17.313Z,59.83
2018-12-17T09:07:56.721Z,55.53
2018-12-17T09:10:30.798Z,51.33
2018-12-17T09:13:10.228Z,53.10
2018-12-17T09:15:43.940Z,53.60
2018-12-17T09:18:17.234Z,46.23
2018-12-17T09:20:50.453Z,46.07
2018-12-17T09:23:24.446Z,50.20
2018-12-17T09:25:57.481Z,50.00
2018-12-17T09:28:30.617Z,50.50
2018-12-17T09:31:06.016Z,44.17
2018-12-17T09:33:46.047Z,44.17
2018-12-17T09:36:21.658Z,44.70
2018-12-17T09:39:01.183Z,40.23
2018-12-17T09:41:34.925Z,43.77
2018-12-17T09:44:08.834Z,39.50
2018-12-17T09:46:42.673Z,37.70
2018-12-17T09:49:15.976Z,36.20
2018-12-17T09:51:49.165Z,40.50
2018-12-17T09:54:23.082Z,37.10
2018-12-17T09:56:57.012Z,37.13
2018-12-17T09:59:33.454Z,39.80
2018-12-17T10:02:13.445Z,40.07
2018-12-17T10:04:55.772Z,37.37
2018-12-17T10:07:30.550Z,47.77
2018-12-17T10:10:04.943Z,46.13
2018-12-17T10:12:38.081Z,36.10
2018-12-17T10:15:13.471Z,44.20
2018-12-17T10:17:47.292Z,43.97
2018-12-17T10:20:21.449Z,34.43
2018-12-17T10:22:55.573Z,32.83
2018-12-17T10:25:26.761Z,33.33
2018-12-17T10:28:13.529Z,36.50
2018-12-17T10:30:46.854Z,32.13
2018-12-17T10:33:20.894Z,36.93
2018-12-17T10:35:56.217Z,40.20
2018-12-17T10:38:32.332Z,38.70
2018-12-17T10:41:05.990Z,41.10
2018-12-17T10:43:45.266Z,37.00
2018-12-17T10:46:19.092Z,38.73
2018-12-17T10:48:52.249Z,37.83
2018-12-17T10:51:26.287Z,37.30
2018-12-17T10:53:57.540Z,40.70
2018-12-17T10:56:30.781Z,44.83
2018-12-17T10:59:04.322Z,38.13
2018-12-17T11:02:08.085Z,36.13
2018-12-17T11:04:46.139Z,34.07
2018-12-17T11:07:22.336Z,33.37
2018-12-17T11:09:56.345Z,32.77
2018-12-17T11:12:30.534Z,28.27
2018-12-17T11:15:04.182Z,34.47
2018-12-17T11:17:44.759Z,27.53
2018-12-17T11:20:20.009Z,26.83
2018-12-17T11:22:59.747Z,25.60
2018-12-17T11:25:30.941Z,26.53
2018-12-17T11:28:10.415Z,58.53
2018-12-17T11:30:46.504Z,30.33
2018-12-17T11:33:17.782Z,23.20
2018-12-17T11:35:53.452Z,24.67
2018-12-17T11:38:27.102Z,19.90
2018-12-17T11:41:01.052Z,24.57
2018-12-17T11:43:34.389Z,22.83
2018-12-17T11:46:10.585Z,27.13
2018-12-17T11:48:48.957Z,26.73
2018-12-17T11:51:23.544Z,26.20
2018-12-17T11:53:56.797Z,22.70
2018-12-17T11:56:39.113Z,20.70
2018-12-17T11:59:12.502Z,20.87
2018-12-17T12:01:47.655Z,21.77
2018-12-17T12:04:21.042Z,93.13
2018-12-17T12:06:56.386Z,45.30
2018-12-17T12:14:31.783Z,20.23
2018-12-17T12:17:08.482Z,20.53
2018-12-17T12:19:44.386Z,20.30
2018-12-17T12:22:24.266Z,19.90
2018-12-17T12:25:02.328Z,17.77
2018-12-17T12:27:38.855Z,17.80
2018-12-17T12:30:12.798Z,18.43
2018-12-17T12:32:44.627Z,16.63
2018-12-17T12:35:20.712Z,14.90
2018-12-17T12:37:58.820Z,18.37
2018-12-17T12:40:33.249Z,15.03
2018-12-17T12:43:06.801Z,20.17
2018-12-17T12:45:37.972Z,14.47
2018-12-17T12:48:13.476Z,16.83
2018-12-17T12:50:47.342Z,16.60
2018-12-17T12:53:29.261Z,15.20
2018-12-17T12:56:02.858Z,14.03
2018-12-17T12:58:36.843Z,13.87
2018-12-17T13:01:10.108Z,16.17
2018-12-17T13:03:46.652Z,16.70
2018-12-17T13:06:20.439Z,13.63
2018-12-17T13:08:53.569Z,15.23
2018-12-17T13:11:26.761Z,15.17
2018-12-17T13:14:00.021Z,13.77
2018-12-17T13:19:08.787Z,16.90
2018-12-17T13:21:42.585Z,15.63
2018-12-17T13:24:20.409Z,16.77
2018-12-17T13:26:54.832Z,14.27
2018-12-17T13:29:30.982Z,19.87
2018-12-17T13:32:07.158Z,15.13
2018-12-17T13:34:40.767Z,16.90
2018-12-17T13:37:20.218Z,17.20
2018-12-17T13:39:53.997Z,13.17
2018-12-17T13:42:28.002Z,15.57
2018-12-17T13:45:03.889Z,15.10
2018-12-17T13:47:39.702Z,14.40
2018-12-17T13:50:18.609Z,14.67
2018-12-17T13:52:50.706Z,17.33
2018-12-17T13:55:28.154Z,15.63
2018-12-17T13:58:01.735Z,16.03
2018-12-17T14:00:38.142Z,20.30
2018-12-17T14:03:12.020Z,14.03
2018-12-17T14:05:43.499Z,16.03
2018-12-17T14:08:15.763Z,15.63
2018-12-17T14:10:53.510Z,16.00
2018-12-17T14:13:27.442Z,19.93
2018-12-17T14:16:12.646Z,17.00
2018-12-17T14:18:53.427Z,17.00
2018-12-17T14:34:12.212Z,13.27
2018-12-17T14:36:45.497Z,14.43
2018-12-17T14:39:18.624Z,16.23
2018-12-17T14:41:51.703Z,15.07
2018-12-17T14:44:32.159Z,13.93
2018-12-17T14:47:12.122Z,13.70
2018-12-17T14:49:43.985Z,13.57
2018-12-17T14:52:17.417Z,14.50
2018-12-17T14:54:55.667Z,16.57
2018-12-17T14:57:29.440Z,15.70
2018-12-17T15:00:02.854Z,15.53
2018-12-17T15:02:38.185Z,16.07
2018-12-17T15:05:11.919Z,14.93
2018-12-17T15:07:45.181Z,13.90
2018-12-17T15:10:19.005Z,14.43
2018-12-17T15:12:52.262Z,16.80
2018-12-17T15:15:32.973Z,14.73
2018-12-17T15:18:06.674Z,14.93
2018-12-17T15:20:38.025Z,14.27
2018-12-17T15:23:11.325Z,13.93
2018-12-17T15:25:50.773Z,14.67
2018-12-17T15:28:24.506Z,15.90
2018-12-17T15:30:58.518Z,15.20
2018-12-17T15:33:31.937Z,16.47
2018-12-17T15:36:05.855Z,14.63
2018-12-17T15:38:45.256Z,15.27
2018-12-17T15:41:19.274Z,16.33
2018-12-17T15:43:53.397Z,16.17
2018-12-17T15:46:31.674Z,15.03
2018-12-17T15:49:03.429Z,14.77
2018-12-17T15:51:36.722Z,16.97
2018-12-17T15:54:13.106Z,18.87
2018-12-17T15:56:46.999Z,18.07
2018-12-17T15:59:20.940Z,15.50
2018-12-17T16:01:54.713Z,15.93
2018-12-17T16:04:30.261Z,19.37
2018-12-17T16:07:08.577Z,19.67
2018-12-17T16:09:40.288Z,16.97
2018-12-17T16:12:14.254Z,17.73
2018-12-17T16:14:47.298Z,19.90
2018-12-17T16:17:20.479Z,21.57
2018-12-17T16:19:55.792Z,15.57
2018-12-17T16:22:27.465Z,22.03
2018-12-17T16:25:05.939Z,19.93
2018-12-17T16:27:39.937Z,19.80
2018-12-17T16:30:14.654Z,18.90
2018-12-17T16:32:48.529Z,23.67
2018-12-17T16:35:21.647Z,22.37
2018-12-17T16:42:57.233Z,20.23
2018-12-17T16:48:03.545Z,24.33
2018-12-17T16:50:36.836Z,25.13
2018-12-17T16:53:13.042Z,23.57
2018-12-17T16:55:48.950Z,22.33
2018-12-17T16:58:28.933Z,20.70
2018-12-17T17:01:02.763Z,19.47
2018-12-17T17:03:42.020Z,19.37
2018-12-17T17:06:15.396Z,21.93
2018-12-17T17:08:49.506Z,19.90
2018-12-17T17:11:23.482Z,19.80
2018-12-17T17:14:01.881Z,22.03
2018-12-17T17:16:41.745Z,16.13
2018-12-17T17:19:15.622Z,17.43
2018-12-17T17:21:49.477Z,15.13
2018-12-17T17:24:23.307Z,15.80
2018-12-17T17:26:56.909Z,16.80
2018-12-17T17:29:31.070Z,16.37
2018-12-17T17:32:12.018Z,18.77
2018-12-17T17:34:46.326Z,16.57
2018-12-17T17:37:24.536Z,18.40
2018-12-17T17:39:58.589Z,17.83
2018-12-17T17:42:38.551Z,16.83
2018-12-17T17:45:12.372Z,16.33
2018-12-17T17:47:46.379Z,15.20
2018-12-17T17:55:29.638Z,19.20
2018-12-17T17:58:01.099Z,17.00
2018-12-17T18:00:36.585Z,19.77
2018-12-17T18:03:12.361Z,18.00
2018-12-17T18:05:46.127Z,16.97
2018-12-17T18:08:19.347Z,18.20
2018-12-17T18:10:52.546Z,18.63
2018-12-17T18:13:25.580Z,18.93
2018-12-17T18:15:59.550Z,19.13
2018-12-17T18:18:32.704Z,16.20
2018-12-17T18:21:05.767Z,16.60
2018-12-17T18:23:47.497Z,16.80
2018-12-17T18:26:26.481Z,22.47
2018-12-17T18:28:59.857Z,17.83
2018-12-17T18:31:34.041Z,17.50
2018-12-17T18:34:07.516Z,17.87
2018-12-17T18:36:41.636Z,18.30
2018-12-17T18:39:17.752Z,17.33
2018-12-17T18:41:53.526Z,19.17
2018-12-17T18:44:27.221Z,18.03
2018-12-17T18:47:01.192Z,17.63
2018-12-17T18:49:34.406Z,19.83
2018-12-17T18:52:08.358Z,21.40
2018-12-17T18:54:41.754Z,19.87
2018-12-17T19:02:18.990Z,23.17
2018-12-17T19:04:56.110Z,17.90
2018-12-17T19:07:28.053Z,19.23
2018-12-17T19:10:01.139Z,20.07
2018-12-17T19:12:37.141Z,19.70
2018-12-17T19:15:17.840Z,21.47
2018-12-17T19:18:04.289Z,20.07
2018-12-17T19:20:37.738Z,31.00
2018-12-17T19:23:13.300Z,19.87
2018-12-17T19:25:49.510Z,20.60
2018-12-17T19:28:23.400Z,17.83
2018-12-17T19:30:56.427Z,19.77
2018-12-17T19:33:36.110Z,17.33
2018-12-17T19:36:10.683Z,20.07
2018-12-17T19:38:46.066Z,18.47
2018-12-17T19:41:19.681Z,22.87
2018-12-17T19:43:53.145Z,17.77
2018-12-17T19:46:31.464Z,20.83
2018-12-17T19:49:11.444Z,18.20
2018-12-17T19:51:47.607Z,19.37
2018-12-17T19:54:21.265Z,19.93
2018-12-17T19:56:54.303Z,20.07
2018-12-17T19:59:27.794Z,19.67
2018-12-17T20:02:01.164Z,19.17
2018-12-17T20:14:45.257Z,18.33
2018-12-17T20:17:18.437Z,22.30
2018-12-17T20:19:52.824Z,19.77
2018-12-17T20:22:27.033Z,23.83
2018-12-17T20:25:07.546Z,21.83
2018-12-17T20:27:41.361Z,18.70
2018-12-17T20:30:15.425Z,19.47
2018-12-17T20:32:55.428Z,20.47
2018-12-17T20:35:29.297Z,22.07
2018-12-17T20:38:02.432Z,18.87
2018-12-17T20:40:33.868Z,23.30
2018-12-17T20:43:06.980Z,20.53
2018-12-17T20:45:41.083Z,18.60
2018-12-17T20:48:14.286Z,20.33
2018-12-17T20:53:39.753Z,22.33
2018-12-17T20:56:23.461Z,24.60
2018-12-17T20:58:59.796Z,20.87
2018-12-17T21:01:39.817Z,24.87
2018-12-17T21:04:20.109Z,23.80
2018-12-17T21:07:00.341Z,23.10
2018-12-17T21:09:32.096Z,23.77
2018-12-17T21:12:13.594Z,23.27
2018-12-17T21:14:55.720Z,22.47
2018-12-17T21:17:29.101Z,23.17
2018-12-17T21:20:02.247Z,24.77
2018-12-17T21:22:35.721Z,26.07
2018-12-17T21:25:27.755Z,22.97
2018-12-17T21:28:09.718Z,25.07
2018-12-17T21:30:43.171Z,22.03
2018-12-17T21:33:22.944Z,21.03
2018-12-17T21:36:02.872Z,22.67
2018-12-17T21:38:36.902Z,23.30
2018-12-17T21:41:10.530Z,18.97
2018-12-17T21:43:49.852Z,21.93
2018-12-17T21:46:28.050Z,23.70
2018-12-17T21:49:03.413Z,21.97
2018-12-17T21:51:37.429Z,24.37
2018-12-17T21:54:17.343Z,19.43
2018-12-17T21:56:57.170Z,20.73
2018-12-17T21:59:30.866Z,21.70
2018-12-17T22:02:04.947Z,21.73
2018-12-17T22:04:45.165Z,22.57
2018-12-17T22:07:21.194Z,21.83
2018-12-17T22:09:54.977Z,20.70
2018-12-17T22:12:29.345Z,21.93
2018-12-17T22:15:08.813Z,21.77
2018-12-17T22:17:42.682Z,24.00
2018-12-17T22:20:16.021Z,20.77
2018-12-17T22:22:54.226Z,22.10
2018-12-17T22:25:35.153Z,23.33
2018-12-17T22:28:13.204Z,22.43
2018-12-17T22:30:46.917Z,21.40
2018-12-17T22:33:26.270Z,19.37
2018-12-17T22:36:04.497Z,19.30
2018-12-17T22:38:39.752Z,21.07
2018-12-17T22:41:15.054Z,19.63
2018-12-17T22:43:46.921Z,21.60
2018-12-17T22:46:26.297Z,19.20
2018-12-17T22:48:59.809Z,23.37
2018-12-17T22:51:39.295Z,22.60
2018-12-17T22:54:20.917Z,21.17
2018-12-17T22:57:00.736Z,21.40
2018-12-17T22:59:34.598Z,21.40
2018-12-17T23:02:07.918Z,21.60
2018-12-17T23:04:41.221Z,22.83
2018-12-17T23:07:14.398Z,21.13
2018-12-17T23:09:55.176Z,22.10
2018-12-17T23:12:36.192Z,21.20
2018-12-17T23:15:17.328Z,22.07
2018-12-17T23:17:56.607Z,24.60
2018-12-17T23:20:34.207Z,22.90
2018-12-17T23:23:15.913Z,22.20
2018-12-17T23:25:49.876Z,22.30
2018-12-17T23:28:29.673Z,22.97
2018-12-17T23:31:03.705Z,24.33
2018-12-17T23:33:36.641Z,22.20
2018-12-17T23:36:09.920Z,23.40
2018-12-17T23:38:43.209Z,22.43
2018-12-17T23:41:16.434Z,22.23
2018-12-17T23:43:50.343Z,23.97
2018-12-17T23:46:23.572Z,22.07
2018-12-17T23:48:56.646Z,23.23
2018-12-17T23:51:38.696Z,20.03
2018-12-17T23:54:12.176Z,21.23
2018-12-17T23:56:47.863Z,22.43
2018-12-17T23:59:21.710Z,23.73
